sensor_id;sensor_type;location;lat;lon;timestamp;pressure;altitude;pressure_sealevel;temperature;humidity
59417;BME280;45222;52.458;20.914;2024-02-28T00:02:27;100657.63;;;7.83;89.60
59417;BME280;45222;52.458;20.914;2024-02-28T00:06:18;100659.08;;;7.82;89.08
59417;BME280;45222;52.458;20.914;2024-02-28T00:10:08;100659.98;;;7.81;89.23
59417;BME280;45222;52.458;20.914;2024-02-28T00:13:56;100654.83;;;7.82;89.45
59417;BME280;45222;52.458;20.914;2024-02-28T00:17:46;100658.03;;;7.87;89.33
59417;BME280;45222;52.458;20.914;2024-02-28T00:21:34;100663.61;;;7.89;89.27
59417;BME280;45222;52.458;20.914;2024-02-28T00:25:21;100668.81;;;7.87;89.01
59417;BME280;45222;52.458;20.914;2024-02-28T00:29:09;100672.83;;;7.84;89.06
59417;BME280;45222;52.458;20.914;2024-02-28T00:32:57;100673.43;;;7.82;89.00
59417;BME280;45222;52.458;20.914;2024-02-28T00:36:44;100668.06;;;7.83;89.25
59417;BME280;45222;52.458;20.914;2024-02-28T00:40:32;100662.79;;;7.87;89.59
59417;BME280;45222;52.458;20.914;2024-02-28T00:44:20;100665.31;;;7.91;89.51
59417;BME280;45222;52.458;20.914;2024-02-28T00:48:08;100663.85;;;7.93;89.41
59417;BME280;45222;52.458;20.914;2024-02-28T00:51:56;100662.79;;;7.93;89.20
59417;BME280;45222;52.458;20.914;2024-02-28T00:55:44;100660.45;;;7.88;89.39
59417;BME280;45222;52.458;20.914;2024-02-28T00:59:31;100661.02;;;7.82;89.30
59417;BME280;45222;52.458;20.914;2024-02-28T01:03:19;100669.34;;;7.76;89.92
59417;BME280;45222;52.458;20.914;2024-02-28T01:07:07;100673.39;;;7.76;90.08
59417;BME280;45222;52.458;20.914;2024-02-28T01:10:54;100678.20;;;7.76;90.16
59417;BME280;45222;52.458;20.914;2024-02-28T01:14:42;100679.95;;;7.76;90.25
59417;BME280;45222;52.458;20.914;2024-02-28T01:18:29;100675.70;;;7.82;90.70
59417;BME280;45222;52.458;20.914;2024-02-28T01:22:18;100673.30;;;7.91;91.03
59417;BME280;45222;52.458;20.914;2024-02-28T01:26:06;100666.58;;;7.96;90.68
59417;BME280;45222;52.458;20.914;2024-02-28T01:29:54;100666.39;;;7.97;90.24
59417;BME280;45222;52.458;20.914;2024-02-28T01:33:41;100666.95;;;7.95;90.19
59417;BME280;45222;52.458;20.914;2024-02-28T01:37:29;100665.16;;;7.96;90.18
59417;BME280;45222;52.458;20.914;2024-02-28T01:41:17;100669.25;;;7.95;90.25
59417;BME280;45222;52.458;20.914;2024-02-28T01:45:06;100673.13;;;7.96;90.58
59417;BME280;45222;52.458;20.914;2024-02-28T01:48:55;100671.98;;;7.99;90.51
59417;BME280;45222;52.458;20.914;2024-02-28T01:52:43;100679.89;;;8.01;90.61
59417;BME280;45222;52.458;20.914;2024-02-28T01:56:31;100684.98;;;8.02;90.28
59417;BME280;45222;52.458;20.914;2024-02-28T02:00:20;100689.29;;;8.00;90.25
59417;BME280;45222;52.458;20.914;2024-02-28T02:04:09;100694.20;;;8.02;90.36
59417;BME280;45222;52.458;20.914;2024-02-28T02:07:57;100701.27;;;8.02;90.57
59417;BME280;45222;52.458;20.914;2024-02-28T02:11:45;100701.88;;;8.05;90.78
59417;BME280;45222;52.458;20.914;2024-02-28T02:15:34;100696.91;;;8.05;90.51
59417;BME280;45222;52.458;20.914;2024-02-28T02:19:21;100684.83;;;8.07;90.60
59417;BME280;45222;52.458;20.914;2024-02-28T02:23:09;100677.11;;;8.04;90.80
59417;BME280;45222;52.458;20.914;2024-02-28T02:26:58;100676.38;;;7.99;91.23
59417;BME280;45222;52.458;20.914;2024-02-28T02:30:46;100677.70;;;7.97;91.97
59417;BME280;45222;52.458;20.914;2024-02-28T02:34:37;100682.30;;;8.03;92.22
59417;BME280;45222;52.458;20.914;2024-02-28T02:38:44;100685.35;;;8.12;92.34
59417;BME280;45222;52.458;20.914;2024-02-28T02:42:50;100689.73;;;8.19;91.99
59417;BME280;45222;52.458;20.914;2024-02-28T02:46:38;100696.23;;;8.20;92.22
59417;BME280;45222;52.458;20.914;2024-02-28T02:50:27;100697.94;;;8.23;92.12
59417;BME280;45222;52.458;20.914;2024-02-28T02:54:14;100692.67;;;8.27;92.11
59417;BME280;45222;52.458;20.914;2024-02-28T02:58:02;100688.41;;;8.32;91.77
59417;BME280;45222;52.458;20.914;2024-02-28T03:01:50;100691.97;;;8.37;91.83
59417;BME280;45222;52.458;20.914;2024-02-28T03:05:38;100689.09;;;8.43;91.87
59417;BME280;45222;52.458;20.914;2024-02-28T03:09:26;100691.45;;;8.47;91.51
59417;BME280;45222;52.458;20.914;2024-02-28T03:13:13;100690.21;;;8.47;90.97
59417;BME280;45222;52.458;20.914;2024-02-28T03:17:01;100691.48;;;8.46;90.70
59417;BME280;45222;52.458;20.914;2024-02-28T03:20:48;100695.79;;;8.44;90.72
59417;BME280;45222;52.458;20.914;2024-02-28T03:24:36;100693.14;;;8.44;91.06
59417;BME280;45222;52.458;20.914;2024-02-28T03:28:24;100697.73;;;8.44;91.29
59417;BME280;45222;52.458;20.914;2024-02-28T03:32:11;100687.66;;;8.44;91.17
59417;BME280;45222;52.458;20.914;2024-02-28T03:35:59;100684.83;;;8.43;91.19
59417;BME280;45222;52.458;20.914;2024-02-28T03:39:46;100675.89;;;8.35;90.80
59417;BME280;45222;52.458;20.914;2024-02-28T03:43:34;100665.77;;;8.21;91.26
59417;BME280;45222;52.458;20.914;2024-02-28T03:47:22;100673.52;;;8.11;92.09
59417;BME280;45222;52.458;20.914;2024-02-28T03:51:10;100676.73;;;8.16;92.57
59417;BME280;45222;52.458;20.914;2024-02-28T03:54:58;100681.55;;;8.25;92.81
59417;BME280;45222;52.458;20.914;2024-02-28T03:58:45;100685.81;;;8.35;92.69
59417;BME280;45222;52.458;20.914;2024-02-28T04:02:33;100690.31;;;8.44;92.13
59417;BME280;45222;52.458;20.914;2024-02-28T04:06:21;100691.34;;;8.50;92.13
59417;BME280;45222;52.458;20.914;2024-02-28T04:10:09;100685.48;;;8.57;91.76
59417;BME280;45222;52.458;20.914;2024-02-28T04:13:57;100679.36;;;8.59;91.48
59417;BME280;45222;52.458;20.914;2024-02-28T04:17:45;100667.13;;;8.43;90.65
59417;BME280;45222;52.458;20.914;2024-02-28T04:21:33;100666.83;;;8.20;90.82
59417;BME280;45222;52.458;20.914;2024-02-28T04:25:20;100669.02;;;8.08;91.41
59417;BME280;45222;52.458;20.914;2024-02-28T04:29:08;100676.39;;;8.04;92.05
59417;BME280;45222;52.458;20.914;2024-02-28T04:33:00;100673.99;;;8.08;92.47
59417;BME280;45222;52.458;20.914;2024-02-28T04:36:47;100667.70;;;8.10;92.41
59417;BME280;45222;52.458;20.914;2024-02-28T04:40:35;100663.87;;;8.03;92.38
59417;BME280;45222;52.458;20.914;2024-02-28T04:44:22;100662.90;;;7.95;93.04
59417;BME280;45222;52.458;20.914;2024-02-28T04:48:10;100661.64;;;7.96;93.56
59417;BME280;45222;52.458;20.914;2024-02-28T04:51:58;100662.06;;;8.04;93.90
59417;BME280;45222;52.458;20.914;2024-02-28T04:55:45;100659.55;;;8.16;93.77
59417;BME280;45222;52.458;20.914;2024-02-28T04:59:33;100661.02;;;8.25;93.46
59417;BME280;45222;52.458;20.914;2024-02-28T05:03:21;100666.08;;;8.27;93.03
59417;BME280;45222;52.458;20.914;2024-02-28T05:07:11;100675.91;;;8.24;92.74
59417;BME280;45222;52.458;20.914;2024-02-28T05:10:59;100691.46;;;8.20;92.71
59417;BME280;45222;52.458;20.914;2024-02-28T05:14:46;100697.17;;;8.19;92.69
59417;BME280;45222;52.458;20.914;2024-02-28T05:18:34;100695.06;;;8.24;92.77
59417;BME280;45222;52.458;20.914;2024-02-28T05:22:22;100700.61;;;8.27;92.98
59417;BME280;45222;52.458;20.914;2024-02-28T05:26:09;100700.95;;;8.34;92.84
59417;BME280;45222;52.458;20.914;2024-02-28T05:29:57;100703.52;;;8.36;92.34
59417;BME280;45222;52.458;20.914;2024-02-28T05:33:46;100708.56;;;8.39;92.17
59417;BME280;45222;52.458;20.914;2024-02-28T05:37:33;100716.23;;;8.42;91.90
59417;BME280;45222;52.458;20.914;2024-02-28T05:41:21;100723.83;;;8.43;91.53
59417;BME280;45222;52.458;20.914;2024-02-28T05:45:10;100734.11;;;8.43;91.49
59417;BME280;45222;52.458;20.914;2024-02-28T05:48:57;100742.34;;;8.41;91.28
59417;BME280;45222;52.458;20.914;2024-02-28T05:52:44;100747.58;;;8.32;91.17
59417;BME280;45222;52.458;20.914;2024-02-28T05:56:32;100744.48;;;8.24;90.97
59417;BME280;45222;52.458;20.914;2024-02-28T06:00:20;100742.05;;;8.23;91.06
59417;BME280;45222;52.458;20.914;2024-02-28T06:04:10;100743.56;;;8.25;91.23
59417;BME280;45222;52.458;20.914;2024-02-28T06:07:58;100745.92;;;8.29;91.42
59417;BME280;45222;52.458;20.914;2024-02-28T06:11:45;100753.46;;;8.31;91.59
59417;BME280;45222;52.458;20.914;2024-02-28T06:15:33;100751.17;;;8.31;91.29
59417;BME280;45222;52.458;20.914;2024-02-28T06:19:21;100748.33;;;8.31;91.41
59417;BME280;45222;52.458;20.914;2024-02-28T06:23:08;100750.39;;;8.39;91.75
59417;BME280;45222;52.458;20.914;2024-02-28T06:26:57;100752.50;;;8.50;92.45
59417;BME280;45222;52.458;20.914;2024-02-28T06:30:45;100749.55;;;8.59;91.67
59417;BME280;45222;52.458;20.914;2024-02-28T06:34:33;100760.52;;;8.60;91.30
59417;BME280;45222;52.458;20.914;2024-02-28T06:38:21;100763.15;;;8.61;91.07
59417;BME280;45222;52.458;20.914;2024-02-28T06:42:08;100764.52;;;8.63;91.01
59417;BME280;45222;52.458;20.914;2024-02-28T06:45:56;100769.55;;;8.66;91.01
59417;BME280;45222;52.458;20.914;2024-02-28T06:49:44;100769.87;;;8.72;91.58
59417;BME280;45222;52.458;20.914;2024-02-28T06:53:31;100770.58;;;8.77;91.52
59417;BME280;45222;52.458;20.914;2024-02-28T06:57:19;100769.53;;;8.82;91.76
59417;BME280;45222;52.458;20.914;2024-02-28T07:01:07;100771.73;;;8.85;91.42
59417;BME280;45222;52.458;20.914;2024-02-28T07:04:54;100771.73;;;8.90;91.39
59417;BME280;45222;52.458;20.914;2024-02-28T07:08:42;100775.91;;;8.97;91.63
59417;BME280;45222;52.458;20.914;2024-02-28T07:12:30;100776.27;;;9.07;92.03
59417;BME280;45222;52.458;20.914;2024-02-28T07:16:17;100781.52;;;9.14;92.14
59417;BME280;45222;52.458;20.914;2024-02-28T07:20:06;100786.58;;;9.17;91.75
59417;BME280;45222;52.458;20.914;2024-02-28T07:23:54;100784.47;;;9.21;92.21
59417;BME280;45222;52.458;20.914;2024-02-28T07:27:42;100788.94;;;9.34;92.60
59417;BME280;45222;52.458;20.914;2024-02-28T07:31:30;100787.06;;;9.52;92.50
59417;BME280;45222;52.458;20.914;2024-02-28T07:35:17;100783.73;;;9.65;92.41
59417;BME280;45222;52.458;20.914;2024-02-28T07:39:05;100788.19;;;9.79;92.31
59417;BME280;45222;52.458;20.914;2024-02-28T07:42:53;100790.40;;;9.90;92.10
59417;BME280;45222;52.458;20.914;2024-02-28T07:46:42;100793.98;;;10.04;91.97
59417;BME280;45222;52.458;20.914;2024-02-28T07:50:30;100799.28;;;10.13;92.15
59417;BME280;45222;52.458;20.914;2024-02-28T07:54:18;100796.34;;;10.20;92.10
59417;BME280;45222;52.458;20.914;2024-02-28T07:58:05;100803.79;;;10.26;91.75
59417;BME280;45222;52.458;20.914;2024-02-28T08:01:53;100805.09;;;10.33;91.98
59417;BME280;45222;52.458;20.914;2024-02-28T08:05:41;100806.89;;;10.41;92.04
59417;BME280;45222;52.458;20.914;2024-02-28T08:09:31;100807.11;;;10.54;92.25
59417;BME280;45222;52.458;20.914;2024-02-28T08:13:18;100815.98;;;10.63;91.62
59417;BME280;45222;52.458;20.914;2024-02-28T08:17:06;100813.58;;;10.61;91.40
59417;BME280;45222;52.458;20.914;2024-02-28T08:20:53;100813.42;;;10.65;91.61
59417;BME280;45222;52.458;20.914;2024-02-28T08:24:43;100819.38;;;10.71;91.53
59417;BME280;45222;52.458;20.914;2024-02-28T08:28:31;100820.34;;;10.73;91.24
59417;BME280;45222;52.458;20.914;2024-02-28T08:32:21;100825.38;;;10.72;91.46
59417;BME280;45222;52.458;20.914;2024-02-28T08:36:09;100819.89;;;10.71;91.24
59417;BME280;45222;52.458;20.914;2024-02-28T08:39:57;100817.71;;;10.73;91.41
59417;BME280;45222;52.458;20.914;2024-02-28T08:43:44;100818.60;;;10.77;91.63
59417;BME280;45222;52.458;20.914;2024-02-28T08:47:32;100814.73;;;10.81;91.60
59417;BME280;45222;52.458;20.914;2024-02-28T08:51:20;100814.59;;;10.83;91.70
59417;BME280;45222;52.458;20.914;2024-02-28T08:55:09;100813.83;;;10.81;91.25
59417;BME280;45222;52.458;20.914;2024-02-28T08:58:57;100811.92;;;10.83;91.47
59417;BME280;45222;52.458;20.914;2024-02-28T09:02:44;100811.33;;;10.93;91.82
59417;BME280;45222;52.458;20.914;2024-02-28T09:06:32;100812.86;;;10.99;91.50
59417;BME280;45222;52.458;20.914;2024-02-28T09:10:20;100808.58;;;11.08;91.73
59417;BME280;45222;52.458;20.914;2024-02-28T09:14:10;100809.83;;;11.16;91.79
59417;BME280;45222;52.458;20.914;2024-02-28T09:17:58;100812.24;;;11.21;91.73
59417;BME280;45222;52.458;20.914;2024-02-28T09:21:45;100815.45;;;11.30;91.77
59417;BME280;45222;52.458;20.914;2024-02-28T09:25:34;100815.13;;;11.37;91.63
59417;BME280;45222;52.458;20.914;2024-02-28T09:29:22;100817.20;;;11.47;91.41
59417;BME280;45222;52.458;20.914;2024-02-28T09:33:10;100815.20;;;11.59;91.45
59417;BME280;45222;52.458;20.914;2024-02-28T09:36:58;100814.15;;;11.70;90.84
59417;BME280;45222;52.458;20.914;2024-02-28T09:40:48;100816.09;;;11.79;90.79
59417;BME280;45222;52.458;20.914;2024-02-28T09:44:37;100818.45;;;11.81;90.52
59417;BME280;45222;52.458;20.914;2024-02-28T09:48:26;100821.30;;;11.81;90.27
59417;BME280;45222;52.458;20.914;2024-02-28T09:52:15;100825.27;;;11.73;89.84
59417;BME280;45222;52.458;20.914;2024-02-28T09:56:03;100830.42;;;11.61;89.62
59417;BME280;45222;52.458;20.914;2024-02-28T09:59:51;100833.00;;;11.47;90.00
59417;BME280;45222;52.458;20.914;2024-02-28T10:03:39;100835.86;;;11.35;90.25
59417;BME280;45222;52.458;20.914;2024-02-28T10:07:28;100831.86;;;11.25;90.52
59417;BME280;45222;52.458;20.914;2024-02-28T10:11:20;100831.55;;;11.23;90.74
59417;BME280;45222;52.458;20.914;2024-02-28T10:15:08;100829.55;;;11.25;91.08
59417;BME280;45222;52.458;20.914;2024-02-28T10:18:57;100833.27;;;11.25;90.91
59417;BME280;45222;52.458;20.914;2024-02-28T10:22:47;100839.44;;;11.22;91.21
59417;BME280;45222;52.458;20.914;2024-02-28T10:26:43;100846.96;;;11.13;90.75
59417;BME280;45222;52.458;20.914;2024-02-28T10:30:31;100851.77;;;11.05;91.18
59417;BME280;45222;52.458;20.914;2024-02-28T10:34:19;100852.89;;;10.95;91.15
59417;BME280;45222;52.458;20.914;2024-02-28T10:38:07;100855.94;;;10.86;91.44
59417;BME280;45222;52.458;20.914;2024-02-28T10:41:58;100854.36;;;10.77;91.72
59417;BME280;45222;52.458;20.914;2024-02-28T10:45:47;100856.12;;;10.73;91.86
59417;BME280;45222;52.458;20.914;2024-02-28T10:49:39;100861.15;;;10.72;92.04
59417;BME280;45222;52.458;20.914;2024-02-28T10:53:36;100861.50;;;10.72;92.41
59417;BME280;45222;52.458;20.914;2024-02-28T10:57:25;100864.77;;;10.75;92.14
59417;BME280;45222;52.458;20.914;2024-02-28T11:01:13;100865.16;;;10.74;91.78
59417;BME280;45222;52.458;20.914;2024-02-28T11:05:01;100863.35;;;10.70;91.40
59417;BME280;45222;52.458;20.914;2024-02-28T11:08:51;100870.42;;;10.67;91.08
59417;BME280;45222;52.458;20.914;2024-02-28T11:12:40;100872.88;;;10.63;91.12
59417;BME280;45222;52.458;20.914;2024-02-28T11:16:32;100877.03;;;10.62;91.41
59417;BME280;45222;52.458;20.914;2024-02-28T11:20:21;100883.89;;;10.55;91.23
59417;BME280;45222;52.458;20.914;2024-02-28T11:24:09;100886.11;;;10.43;90.64
59417;BME280;45222;52.458;20.914;2024-02-28T11:28:00;100885.50;;;10.27;90.39
59417;BME280;45222;52.458;20.914;2024-02-28T11:31:48;100887.27;;;10.17;90.64
59417;BME280;45222;52.458;20.914;2024-02-28T11:35:35;100890.66;;;10.08;90.56
59417;BME280;45222;52.458;20.914;2024-02-28T11:39:24;100895.80;;;9.99;90.73
59417;BME280;45222;52.458;20.914;2024-02-28T11:43:12;100899.12;;;9.90;90.67
59417;BME280;45222;52.458;20.914;2024-02-28T11:47:00;100903.16;;;9.82;90.68
59417;BME280;45222;52.458;20.914;2024-02-28T11:50:53;100899.41;;;9.73;90.55
59417;BME280;45222;52.458;20.914;2024-02-28T11:54:44;100902.25;;;9.68;90.65
59417;BME280;45222;52.458;20.914;2024-02-28T11:58:34;100901.16;;;9.69;91.12
59417;BME280;45222;52.458;20.914;2024-02-28T12:02:24;100903.11;;;9.64;90.92
59417;BME280;45222;52.458;20.914;2024-02-28T12:06:13;100908.75;;;9.60;91.05
59417;BME280;45222;52.458;20.914;2024-02-28T12:10:01;100912.15;;;9.54;90.92
59417;BME280;45222;52.458;20.914;2024-02-28T12:13:54;100914.00;;;9.52;90.92
59417;BME280;45222;52.458;20.914;2024-02-28T12:17:43;100916.80;;;9.48;90.88
59417;BME280;45222;52.458;20.914;2024-02-28T12:21:31;100912.16;;;9.44;90.92
59417;BME280;45222;52.458;20.914;2024-02-28T12:25:19;100911.30;;;9.43;90.99
59417;BME280;45222;52.458;20.914;2024-02-28T12:29:06;100914.21;;;9.41;91.01
59417;BME280;45222;52.458;20.914;2024-02-28T12:32:56;100914.52;;;9.37;91.09
59417;BME280;45222;52.458;20.914;2024-02-28T12:36:43;100919.39;;;9.35;90.93
59417;BME280;45222;52.458;20.914;2024-02-28T12:40:31;100922.27;;;9.34;91.18
59417;BME280;45222;52.458;20.914;2024-02-28T12:44:19;100919.98;;;9.33;91.37
59417;BME280;45222;52.458;20.914;2024-02-28T12:48:07;100918.51;;;9.35;91.60
59417;BME280;45222;52.458;20.914;2024-02-28T12:51:55;100916.61;;;9.38;91.65
59417;BME280;45222;52.458;20.914;2024-02-28T12:55:43;100911.59;;;9.40;91.60
59417;BME280;45222;52.458;20.914;2024-02-28T12:59:31;100912.06;;;9.42;91.91
59417;BME280;45222;52.458;20.914;2024-02-28T13:03:19;100904.55;;;9.48;91.98
59417;BME280;45222;52.458;20.914;2024-02-28T13:07:07;100909.63;;;9.51;91.70
59417;BME280;45222;52.458;20.914;2024-02-28T13:10:54;100910.38;;;9.55;91.94
59417;BME280;45222;52.458;20.914;2024-02-28T13:14:42;100916.47;;;9.58;92.13
59417;BME280;45222;52.458;20.914;2024-02-28T13:18:30;100920.81;;;9.55;92.01
59417;BME280;45222;52.458;20.914;2024-02-28T13:22:17;100924.56;;;9.50;91.28
59417;BME280;45222;52.458;20.914;2024-02-28T13:26:05;100929.82;;;9.47;91.76
59417;BME280;45222;52.458;20.914;2024-02-28T13:29:53;100932.41;;;9.44;91.77
59417;BME280;45222;52.458;20.914;2024-02-28T13:33:41;100930.17;;;9.42;91.96
59417;BME280;45222;52.458;20.914;2024-02-28T13:37:29;100931.10;;;9.40;92.17
59417;BME280;45222;52.458;20.914;2024-02-28T13:41:17;100931.34;;;9.39;92.25
59417;BME280;45222;52.458;20.914;2024-02-28T13:45:07;100939.95;;;9.31;92.21
59417;BME280;45222;52.458;20.914;2024-02-28T13:48:55;100944.85;;;9.22;92.24
59417;BME280;45222;52.458;20.914;2024-02-28T13:52:43;100942.71;;;9.23;92.41
59417;BME280;45222;52.458;20.914;2024-02-28T13:56:30;100946.12;;;9.21;92.60
59417;BME280;45222;52.458;20.914;2024-02-28T14:00:19;100950.33;;;9.23;92.44
59417;BME280;45222;52.458;20.914;2024-02-28T14:04:07;100957.29;;;9.22;92.53
59417;BME280;45222;52.458;20.914;2024-02-28T14:07:54;100954.33;;;9.20;92.10
59417;BME280;45222;52.458;20.914;2024-02-28T14:11:43;100953.53;;;9.23;92.24
59417;BME280;45222;52.458;20.914;2024-02-28T14:15:31;100953.81;;;9.25;92.24
59417;BME280;45222;52.458;20.914;2024-02-28T14:19:19;100959.40;;;9.28;92.52
59417;BME280;45222;52.458;20.914;2024-02-28T14:23:06;100961.40;;;9.31;92.65
59417;BME280;45222;52.458;20.914;2024-02-28T14:26:54;100962.27;;;9.32;92.50
59417;BME280;45222;52.458;20.914;2024-02-28T14:30:42;100962.98;;;9.33;92.53
59417;BME280;45222;52.458;20.914;2024-02-28T14:34:31;100965.10;;;9.32;92.46
59417;BME280;45222;52.458;20.914;2024-02-28T14:38:19;100963.00;;;9.32;92.15
59417;BME280;45222;52.458;20.914;2024-02-28T14:42:07;100964.79;;;9.31;92.42
59417;BME280;45222;52.458;20.914;2024-02-28T14:45:55;100971.58;;;9.30;92.31
59417;BME280;45222;52.458;20.914;2024-02-28T14:49:43;100980.05;;;9.26;92.29
59417;BME280;45222;52.458;20.914;2024-02-28T14:53:31;100980.70;;;9.22;92.34
59417;BME280;45222;52.458;20.914;2024-02-28T14:57:18;100987.65;;;9.22;92.34
59417;BME280;45222;52.458;20.914;2024-02-28T15:01:06;100990.33;;;9.21;92.53
59417;BME280;45222;52.458;20.914;2024-02-28T15:04:54;100991.83;;;9.19;92.54
59417;BME280;45222;52.458;20.914;2024-02-28T15:08:41;101000.11;;;9.14;92.40
59417;BME280;45222;52.458;20.914;2024-02-28T15:12:29;100998.60;;;9.12;92.48
59417;BME280;45222;52.458;20.914;2024-02-28T15:16:20;101001.45;;;9.11;92.59
59417;BME280;45222;52.458;20.914;2024-02-28T15:20:10;101006.14;;;9.15;92.79
59417;BME280;45222;52.458;20.914;2024-02-28T15:23:58;101006.13;;;9.15;92.74
59417;BME280;45222;52.458;20.914;2024-02-28T15:27:49;101013.73;;;9.16;92.74
59417;BME280;45222;52.458;20.914;2024-02-28T15:31:37;101017.04;;;9.12;92.62
59417;BME280;45222;52.458;20.914;2024-02-28T15:35:25;101014.34;;;9.13;92.71
59417;BME280;45222;52.458;20.914;2024-02-28T15:39:13;101011.02;;;9.17;93.03
59417;BME280;45222;52.458;20.914;2024-02-28T15:43:02;101017.56;;;9.18;92.81
59417;BME280;45222;52.458;20.914;2024-02-28T15:46:49;101020.00;;;9.14;92.84
59417;BME280;45222;52.458;20.914;2024-02-28T15:50:37;101024.69;;;9.12;92.97
59417;BME280;45222;52.458;20.914;2024-02-28T15:54:24;101022.98;;;9.10;93.04
59417;BME280;45222;52.458;20.914;2024-02-28T15:58:13;101027.90;;;9.11;93.36
59417;BME280;45222;52.458;20.914;2024-02-28T16:02:01;101033.64;;;9.09;93.15
59417;BME280;45222;52.458;20.914;2024-02-28T16:05:50;101035.41;;;9.04;93.10
59417;BME280;45222;52.458;20.914;2024-02-28T16:09:40;101037.99;;;9.00;93.05
59417;BME280;45222;52.458;20.914;2024-02-28T16:13:27;101043.92;;;8.98;93.25
59417;BME280;45222;52.458;20.914;2024-02-28T16:17:16;101044.81;;;8.93;93.32
59417;BME280;45222;52.458;20.914;2024-02-28T16:21:04;101043.61;;;8.91;93.77
59417;BME280;45222;52.458;20.914;2024-02-28T16:24:51;101041.89;;;8.89;93.39
59417;BME280;45222;52.458;20.914;2024-02-28T16:28:39;101044.20;;;8.84;93.02
59417;BME280;45222;52.458;20.914;2024-02-28T16:32:27;101050.33;;;8.74;93.00
59417;BME280;45222;52.458;20.914;2024-02-28T16:36:16;101046.98;;;8.67;93.21
59417;BME280;45222;52.458;20.914;2024-02-28T16:40:05;101051.10;;;8.66;93.24
59417;BME280;45222;52.458;20.914;2024-02-28T16:43:54;101047.39;;;8.66;93.38
59417;BME280;45222;52.458;20.914;2024-02-28T16:47:43;101054.68;;;8.65;93.25
59417;BME280;45222;52.458;20.914;2024-02-28T16:51:31;101058.95;;;8.65;93.07
59417;BME280;45222;52.458;20.914;2024-02-28T16:55:20;101061.05;;;8.65;92.91
59417;BME280;45222;52.458;20.914;2024-02-28T16:59:08;101073.39;;;8.68;93.24
59417;BME280;45222;52.458;20.914;2024-02-28T17:02:58;101071.23;;;8.69;93.17
59417;BME280;45222;52.458;20.914;2024-02-28T17:06:46;101071.78;;;8.68;93.13
59417;BME280;45222;52.458;20.914;2024-02-28T17:10:36;101072.35;;;8.60;92.74
59417;BME280;45222;52.458;20.914;2024-02-28T17:14:24;101071.16;;;8.52;92.52
59417;BME280;45222;52.458;20.914;2024-02-28T17:18:12;101073.61;;;8.46;92.55
59417;BME280;45222;52.458;20.914;2024-02-28T17:22:01;101076.38;;;8.43;92.57
59417;BME280;45222;52.458;20.914;2024-02-28T17:25:49;101082.45;;;8.41;92.78
59417;BME280;45222;52.458;20.914;2024-02-28T17:29:37;101086.31;;;8.36;92.78
59417;BME280;45222;52.458;20.914;2024-02-28T17:33:25;101083.61;;;8.31;92.56
59417;BME280;45222;52.458;20.914;2024-02-28T17:37:12;101086.19;;;8.27;92.83
59417;BME280;45222;52.458;20.914;2024-02-28T17:41:00;101090.81;;;8.27;92.89
59417;BME280;45222;52.458;20.914;2024-02-28T17:44:47;101094.99;;;8.23;93.04
59417;BME280;45222;52.458;20.914;2024-02-28T17:48:36;101107.36;;;8.24;93.05
59417;BME280;45222;52.458;20.914;2024-02-28T17:52:25;101111.05;;;8.25;93.13
59417;BME280;45222;52.458;20.914;2024-02-28T17:56:15;101113.84;;;8.21;92.75
59417;BME280;45222;52.458;20.914;2024-02-28T18:00:04;101114.39;;;8.13;92.56
59417;BME280;45222;52.458;20.914;2024-02-28T18:03:53;101108.02;;;8.06;92.69
59417;BME280;45222;52.458;20.914;2024-02-28T18:07:41;101107.07;;;8.02;92.95
59417;BME280;45222;52.458;20.914;2024-02-28T18:11:28;101110.45;;;8.01;93.20
59417;BME280;45222;52.458;20.914;2024-02-28T18:15:16;101118.27;;;8.00;93.25
59417;BME280;45222;52.458;20.914;2024-02-28T18:19:04;101123.98;;;7.91;93.45
59417;BME280;45222;52.458;20.914;2024-02-28T18:22:55;101120.02;;;7.87;93.35
59417;BME280;45222;52.458;20.914;2024-02-28T18:26:43;101121.24;;;7.80;93.29
59417;BME280;45222;52.458;20.914;2024-02-28T18:30:31;101124.01;;;7.76;93.33
59417;BME280;45222;52.458;20.914;2024-02-28T18:34:19;101137.45;;;7.76;93.43
59417;BME280;45222;52.458;20.914;2024-02-28T18:38:06;101132.58;;;7.73;93.51
59417;BME280;45222;52.458;20.914;2024-02-28T18:41:55;101137.38;;;7.65;93.42
59417;BME280;45222;52.458;20.914;2024-02-28T18:45:45;101143.08;;;7.56;93.41
59417;BME280;45222;52.458;20.914;2024-02-28T18:49:37;101150.48;;;7.49;93.39
59417;BME280;45222;52.458;20.914;2024-02-28T18:53:31;101153.20;;;7.47;93.61
59417;BME280;45222;52.458;20.914;2024-02-28T18:57:22;101167.49;;;7.48;93.61
59417;BME280;45222;52.458;20.914;2024-02-28T19:01:12;101166.06;;;7.49;93.81
59417;BME280;45222;52.458;20.914;2024-02-28T19:05:00;101170.33;;;7.49;93.71
59417;BME280;45222;52.458;20.914;2024-02-28T19:08:49;101168.16;;;7.42;93.56
59417;BME280;45222;52.458;20.914;2024-02-28T19:12:38;101170.88;;;7.40;93.72
59417;BME280;45222;52.458;20.914;2024-02-28T19:16:26;101173.63;;;7.35;93.81
59417;BME280;45222;52.458;20.914;2024-02-28T19:20:14;101174.23;;;7.32;93.77
59417;BME280;45222;52.458;20.914;2024-02-28T19:24:01;101173.52;;;7.25;93.97
59417;BME280;45222;52.458;20.914;2024-02-28T19:27:49;101172.64;;;7.16;93.89
59417;BME280;45222;52.458;20.914;2024-02-28T19:31:37;101167.46;;;7.10;94.02
59417;BME280;45222;52.458;20.914;2024-02-28T19:35:28;101170.88;;;7.07;94.21
59417;BME280;45222;52.458;20.914;2024-02-28T19:39:16;101174.91;;;7.08;94.41
59417;BME280;45222;52.458;20.914;2024-02-28T19:43:07;101172.09;;;7.08;94.48
59417;BME280;45222;52.458;20.914;2024-02-28T19:46:56;101169.80;;;7.08;94.74
59417;BME280;45222;52.458;20.914;2024-02-28T19:50:46;101169.34;;;7.13;94.87